Time;durP1;ratioP1;P1;durP2;ratioP2;P2;SDS_P1;SDS_P2;PMS_P1;PMS_P2;Temp;Humidity;BMP_temperature;BMP_pressure;BME280_temperature;BME280_humidity;BME280_pressure;Samples;Min_cycle;Max_cycle;Signal;HPM_P1;HPM_P2
2021/11/09 00:01:04;;;;;;;4.03;1.83;;;1.60;99.90;;;;;;4966501;28;20043;-64
2021/11/09 00:03:36;;;;;;;2.42;1.73;;;1.50;99.90;;;;;;4966205;28;20416;-64
2021/11/09 00:08:48;;;;;;;2.80;1.50;;;1.40;99.90;;;;;;4960325;28;20065;-64
2021/11/09 00:11:16;;;;;;;2.20;1.70;;;1.40;99.90;;;;;;4965492;28;20129;-69
2021/11/09 00:13:43;;;;;;;2.55;1.80;;;1.40;99.90;;;;;;4966195;28;20050;-63
2021/11/09 00:16:12;;;;;;;1.85;1.52;;;1.30;99.90;;;;;;4965015;28;20500;-69
2021/11/09 00:18:39;;;;;;;2.15;1.30;;;1.30;99.90;;;;;;4967437;28;20109;-64
2021/11/09 00:21:06;;;;;;;1.55;1.45;;;1.30;99.90;;;;;;4969433;28;20043;-67
2021/11/09 00:23:33;;;;;;;2.78;1.27;;;1.20;99.90;;;;;;4968865;28;20058;-66
2021/11/09 00:26:00;;;;;;;3.92;1.55;;;1.20;99.90;;;;;;4971886;28;20171;-65
2021/11/09 00:28:27;;;;;;;1.30;1.08;;;1.20;99.90;;;;;;4968442;28;20090;-66
2021/11/09 00:30:55;;;;;;;1.77;1.30;;;1.10;99.90;;;;;;4969120;28;20504;-68
2021/11/09 00:33:22;;;;;;;2.88;1.67;;;1.00;99.90;;;;;;4960918;28;20051;-69
2021/11/09 00:35:49;;;;;;;2.17;1.83;;;1.00;99.90;;;;;;4949074;28;20040;-64
2021/11/09 00:38:16;;;;;;;4.78;1.10;;;0.90;99.90;;;;;;4951866;28;20449;-69
2021/11/09 00:40:44;;;;;;;1.67;1.58;;;0.90;99.90;;;;;;4945871;28;20059;-64
2021/11/09 00:43:14;;;;;;;2.92;1.58;;;0.80;99.90;;;;;;4951132;28;20480;-63
2021/11/09 00:45:42;;;;;;;;;;;0.70;99.90;;;;;;4948581;28;20066;-66
2021/11/09 00:48:09;;;;;;;1.20;1.10;;;0.70;99.90;;;;;;4950628;28;19934;-65
2021/11/09 00:50:38;;;;;;;2.13;1.52;;;0.70;99.90;;;;;;4945870;28;20073;-65
2021/11/09 00:53:07;;;;;;;2.80;1.23;;;0.70;99.90;;;;;;4964265;28;20051;-67
2021/11/09 00:55:34;;;;;;;4.45;1.20;;;0.70;99.90;;;;;;4949776;28;20058;-63
2021/11/09 00:58:01;;;;;;;1.88;1.25;;;0.60;99.90;;;;;;4950580;28;20047;-64
2021/11/09 01:00:31;;;;;;;4.32;1.13;;;0.60;99.90;;;;;;4947518;28;20150;-66
2021/11/09 01:03:00;;;;;;;1.65;0.77;;;0.60;99.90;;;;;;4943356;28;20452;-67
2021/11/09 01:05:28;;;;;;;1.80;1.08;;;0.60;99.90;;;;;;4949624;28;20039;-64
2021/11/09 01:08:03;;;;;;;0.80;0.80;;;0.50;99.90;;;;;;4961172;28;20077;-64
2021/11/09 01:10:34;;;;;;;2.75;1.15;;;0.50;99.90;;;;;;4957935;28;20062;-64
2021/11/09 01:13:02;;;;;;;1.23;0.73;;;0.50;99.90;;;;;;4949277;28;20050;-72
2021/11/09 01:15:31;;;;;;;1.17;0.90;;;0.50;99.90;;;;;;4950275;28;20549;-64
2021/11/09 01:18:00;;;;;;;2.75;1.08;;;0.50;99.90;;;;;;4950841;28;20114;-66
2021/11/09 01:20:28;;;;;;;2.13;1.42;;;0.50;99.90;;;;;;4947428;28;20047;-66
2021/11/09 01:22:57;;;;;;;0.95;0.80;;;0.50;99.90;;;;;;4949102;28;20058;-64
2021/11/09 01:25:27;;;;;;;1.45;1.08;;;0.40;99.90;;;;;;4949095;28;20039;-66
2021/11/09 01:27:54;;;;;;;3.83;1.10;;;0.40;99.90;;;;;;4947519;28;20393;-66
2021/11/09 01:30:22;;;;;;;3.08;1.02;;;0.40;99.90;;;;;;4949907;28;20412;-65
2021/11/09 01:32:50;;;;;;;1.42;0.70;;;0.40;99.90;;;;;;4950994;28;20034;-65
2021/11/09 01:35:19;;;;;;;2.42;1.10;;;0.40;99.90;;;;;;4968774;28;20101;-64
2021/11/09 01:37:47;;;;;;;5.70;1.17;;;0.30;99.90;;;;;;4979881;28;20043;-65
2021/11/09 01:40:16;;;;;;;1.73;0.93;;;0.30;99.90;;;;;;4972463;28;20128;-66
2021/11/09 01:42:43;;;;;;;2.53;0.80;;;0.20;99.90;;;;;;4962935;28;21677;-63
2021/11/09 01:45:12;;;;;;;0.93;0.65;;;0.20;99.90;;;;;;4969629;28;21901;-64
2021/11/09 01:47:41;;;;;;;3.40;1.55;;;0.10;99.90;;;;;;4966616;28;20055;-71
2021/11/09 01:50:10;;;;;;;0.93;0.70;;;0.10;99.90;;;;;;4969401;28;20050;-65
2021/11/09 01:52:39;;;;;;;0.73;0.70;;;0.10;99.90;;;;;;4965147;28;20046;-64
2021/11/09 01:55:11;;;;;;;1.77;0.93;;;0.10;99.90;;;;;;4962949;28;20034;-64
2021/11/09 01:57:39;;;;;;;2.90;1.08;;;0.10;99.90;;;;;;4946655;28;20149;-65
2021/11/09 02:00:12;;;;;;;1.70;0.80;;;0.00;99.90;;;;;;4947037;28;20055;-65
2021/11/09 02:02:43;;;;;;;3.05;1.25;;;0.10;99.90;;;;;;4945564;28;20098;-72
2021/11/09 02:05:12;;;;;;;1.27;0.60;;;0.00;99.90;;;;;;4950553;28;20138;-64
2021/11/09 02:07:47;;;;;;;0.90;0.80;;;0.00;99.90;;;;;;4956880;28;20062;-75
2021/11/09 02:10:16;;;;;;;2.17;1.13;;;0.00;99.90;;;;;;4945270;28;20073;-64
2021/11/09 02:12:44;;;;;;;1.35;0.77;;;0.00;99.90;;;;;;4948067;28;20051;-70
2021/11/09 02:15:12;;;;;;;2.22;0.70;;;0.00;99.90;;;;;;4947797;28;20093;-63
2021/11/09 02:17:41;;;;;;;1.15;0.63;;;0.00;99.90;;;;;;4947655;28;20068;-64
2021/11/09 02:20:11;;;;;;;1.10;0.68;;;-0.10;99.90;;;;;;4947678;28;20062;-63
2021/11/09 02:22:40;;;;;;;0.85;0.52;;;-0.10;99.90;;;;;;4946304;28;20061;-63
2021/11/09 02:25:11;;;;;;;3.17;0.80;;;-0.10;99.90;;;;;;4947937;28;20035;-63
2021/11/09 02:27:39;;;;;;;0.80;0.60;;;-0.20;99.90;;;;;;4943047;28;20050;-72
2021/11/09 02:30:10;;;;;;;2.42;0.60;;;-0.20;99.90;;;;;;4961086;28;20054;-64
2021/11/09 02:32:37;;;;;;;0.95;0.70;;;-0.20;99.90;;;;;;4965121;28;20077;-65
2021/11/09 02:35:07;;;;;;;0.90;0.77;;;-0.20;99.90;;;;;;4967721;28;20334;-74
2021/11/09 02:37:34;;;;;;;1.77;0.40;;;-0.20;99.90;;;;;;4968269;28;20054;-68
2021/11/09 02:40:04;;;;;;;1.05;0.60;;;-0.20;99.90;;;;;;4966366;28;20042;-64
2021/11/09 02:42:35;;;;;;;1.45;0.98;;;-0.30;99.90;;;;;;4964368;28;20051;-64
2021/11/09 02:45:11;;;;;;;0.70;0.60;;;-0.30;99.90;;;;;;4966045;28;20416;-69
2021/11/09 02:47:51;;;;;;;2.03;0.73;;;-0.30;99.90;;;;;;4968105;28;20061;-72
2021/11/09 02:50:21;;;;;;;1.05;0.82;;;-0.30;99.90;;;;;;4965002;28;20034;-66
2021/11/09 02:52:56;;;;;;;1.08;0.65;;;-0.30;99.90;;;;;;4958487;28;20046;-66
2021/11/09 02:55:31;;;;;;;1.38;0.75;;;-0.30;99.90;;;;;;4965628;28;20384;-65
2021/11/09 03:00:36;;;;;;;2.97;0.85;;;-0.30;99.90;;;;;;4962585;28;20186;-65
2021/11/09 03:03:08;;;;;;;1.35;0.57;;;-0.40;99.90;;;;;;4965347;28;20055;-64
2021/11/09 03:05:50;;;;;;;3.30;1.05;;;-0.40;99.90;;;;;;4965335;28;20106;-65
2021/11/09 03:08:35;;;;;;;0.90;0.70;;;-0.40;99.90;;;;;;4966305;28;20208;-65
2021/11/09 03:11:03;;;;;;;1.20;0.60;;;-0.40;99.90;;;;;;4963041;28;20125;-63
2021/11/09 03:13:30;;;;;;;2.28;1.25;;;-0.40;99.90;;;;;;4967971;28;20039;-66
2021/11/09 03:16:03;;;;;;;0.85;0.50;;;-0.40;99.90;;;;;;4959302;28;20513;-66
2021/11/09 03:18:36;;;;;;;3.95;0.95;;;-0.40;99.90;;;;;;4963565;28;20369;-64
2021/11/09 03:45:40;;;;;;;0.82;0.55;;;-0.50;99.90;;;;;;4948314;28;20067;-63
2021/11/09 03:48:10;;;;;;;2.33;0.80;;;-0.50;99.90;;;;;;4963024;28;20486;-63
2021/11/09 03:50:39;;;;;;;1.00;0.75;;;-0.50;99.90;;;;;;4967345;28;20102;-68
2021/11/09 03:53:18;;;;;;;3.75;1.48;;;-0.50;99.90;;;;;;4968220;28;20035;-67
2021/11/09 03:58:24;;;;;;;3.90;0.85;;;-0.50;99.90;;;;;;4967011;28;20156;-66
2021/11/09 04:04:19;;;;;;;0.93;0.80;;;-0.50;99.90;;;;;;4974984;28;20039;-70
2021/11/09 04:06:30;;;;;;;1.15;0.70;;;-0.50;99.90;;;;;;4958616;28;20468;-69
2021/11/09 04:11:42;;;;;;;1.33;1.23;;;-0.50;99.90;;;;;;4970562;28;20156;-64
2021/11/09 04:19:29;;;;;;;2.85;0.90;;;-0.50;99.90;;;;;;4970355;28;20066;-67
2021/11/09 04:47:51;;;;;;;1.08;0.88;;;-0.60;99.90;;;;;;4947283;28;20094;-66
2021/11/09 05:09:54;;;;;;;1.73;1.05;;;-0.60;99.90;;;;;;4944713;28;20146;-70
2021/11/09 05:12:00;;;;;;;1.67;0.90;;;-0.50;99.90;;;;;;4941773;28;20134;-65
2021/11/09 05:14:27;;;;;;;1.10;0.90;;;-0.50;99.90;;;;;;4958852;28;20121;-68
2021/11/09 05:16:54;;;;;;;4.30;0.90;;;-0.50;99.90;;;;;;4975780;28;20051;-70
2021/11/09 05:19:21;;;;;;;1.42;0.88;;;-0.50;99.90;;;;;;4969420;28;20467;-65
2021/11/09 05:21:48;;;;;;;3.58;1.13;;;-0.50;99.90;;;;;;4979719;28;20050;-64
2021/11/09 05:24:15;;;;;;;2.17;0.80;;;-0.50;99.90;;;;;;4967098;28;20078;-68
2021/11/09 05:26:42;;;;;;;3.95;1.58;;;-0.50;99.90;;;;;;4971115;28;20070;-63
2021/11/09 05:29:11;;;;;;;4.47;1.48;;;-0.50;99.90;;;;;;4970030;28;20496;-63
2021/11/09 05:31:38;;;;;;;1.42;1.08;;;-0.40;99.90;;;;;;4967160;28;20050;-72
2021/11/09 05:34:07;;;;;;;1.77;0.93;;;-0.40;99.90;;;;;;4969331;28;20078;-65
2021/11/09 05:36:37;;;;;;;1.75;0.98;;;-0.30;99.90;;;;;;4970001;28;20078;-64
2021/11/09 05:39:19;;;;;;;1.83;1.38;;;-0.20;99.90;;;;;;4972113;28;20039;-63
2021/11/09 05:41:50;;;;;;;1.40;1.10;;;-0.20;99.90;;;;;;4972632;28;20074;-65
2021/11/09 05:44:18;;;;;;;2.40;1.33;;;-0.10;99.90;;;;;;4970422;28;20101;-68
2021/11/09 05:46:44;;;;;;;2.63;0.88;;;-0.10;99.90;;;;;;4968407;28;20062;-63
2021/11/09 05:49:12;;;;;;;2.70;1.45;;;0.00;99.90;;;;;;4967957;28;20047;-64
2021/11/09 05:51:40;;;;;;;0.93;0.60;;;0.00;99.90;;;;;;4971411;28;20409;-64
2021/11/09 05:54:09;;;;;;;1.55;1.27;;;0.10;99.90;;;;;;4967294;28;20416;-64
2021/11/09 05:56:36;;;;;;;2.05;1.10;;;0.10;99.90;;;;;;4966393;28;20051;-69
2021/11/09 05:59:03;;;;;;;1.77;1.10;;;0.20;99.90;;;;;;4966867;28;20051;-69
2021/11/09 06:01:30;;;;;;;4.10;1.27;;;0.30;99.90;;;;;;4969811;28;20492;-66
2021/11/09 06:03:56;;;;;;;1.15;0.60;;;0.30;99.90;;;;;;4970006;28;20055;-64
2021/11/09 06:06:23;;;;;;;1.30;0.80;;;0.40;99.90;;;;;;4967780;28;20138;-71
2021/11/09 06:08:50;;;;;;;1.15;0.80;;;0.50;99.90;;;;;;4968975;28;20121;-73
2021/11/09 06:11:18;;;;;;;1.95;0.90;;;0.50;99.90;;;;;;4962687;28;20102;-64
2021/11/09 06:13:46;;;;;;;1.85;1.00;;;0.60;99.90;;;;;;4948497;28;20090;-68
2021/11/09 06:16:14;;;;;;;1.27;1.00;;;0.60;99.90;;;;;;4950946;28;20350;-63
2021/11/09 06:18:41;;;;;;;3.20;1.10;;;0.80;99.90;;;;;;4947525;28;20134;-67
2021/11/09 06:21:09;;;;;;;2.70;1.42;;;0.80;99.90;;;;;;4956703;28;20491;-64
2021/11/09 06:23:36;;;;;;;1.67;0.80;;;0.90;99.90;;;;;;4948772;28;20449;-66
2021/11/09 06:26:03;;;;;;;2.83;2.17;;;1.00;99.90;;;;;;4954518;28;20071;-67
2021/11/09 06:28:30;;;;;;;2.20;1.30;;;1.10;99.90;;;;;;4945716;28;20149;-68
2021/11/09 06:30:58;;;;;;;2.63;1.00;;;1.20;99.90;;;;;;4952121;28;20051;-64
2021/11/09 06:33:25;;;;;;;1.25;0.68;;;1.20;99.90;;;;;;4948441;28;20074;-71
2021/11/09 06:35:52;;;;;;;1.05;0.73;;;1.30;99.90;;;;;;4947371;28;20126;-63
2021/11/09 06:38:20;;;;;;;2.53;0.85;;;1.40;99.90;;;;;;4949206;28;20097;-63
2021/11/09 06:40:47;;;;;;;3.40;1.10;;;1.40;99.90;;;;;;4954700;28;20532;-67
2021/11/09 06:43:14;;;;;;;1.92;1.00;;;1.40;99.90;;;;;;4950645;28;20039;-63
2021/11/09 06:45:42;;;;;;;5.25;1.35;;;1.50;99.90;;;;;;4948628;28;20054;-64
2021/11/09 06:48:09;;;;;;;1.55;0.82;;;1.50;99.90;;;;;;4949213;28;20063;-64
2021/11/09 06:50:37;;;;;;;2.58;1.15;;;1.50;99.90;;;;;;4961150;28;20090;-66
2021/11/09 06:53:04;;;;;;;1.25;1.13;;;1.60;99.90;;;;;;4946603;28;20039;-66
2021/11/09 06:55:35;;;;;;;4.03;1.10;;;1.60;99.90;;;;;;4947491;28;20394;-67
2021/11/09 06:58:02;;;;;;;2.97;1.00;;;1.60;99.90;;;;;;4946189;28;20058;-68
2021/11/09 07:00:29;;;;;;;1.60;0.73;;;1.70;99.90;;;;;;4950540;28;20047;-69
2021/11/09 07:02:56;;;;;;;1.55;1.02;;;1.80;99.90;;;;;;4948376;28;20054;-65
2021/11/09 07:05:23;;;;;;;1.10;1.00;;;1.80;99.90;;;;;;4952902;28;20098;-66
2021/11/09 07:07:50;;;;;;;1.95;1.17;;;1.80;99.90;;;;;;4949950;28;20082;-64
2021/11/09 07:10:17;;;;;;;3.00;0.60;;;1.90;99.90;;;;;;4950110;28;20075;-64
2021/11/09 07:12:45;;;;;;;1.25;0.75;;;2.00;99.90;;;;;;4945888;28;20110;-63
2021/11/09 07:15:14;;;;;;;1.17;0.90;;;2.00;99.90;;;;;;4959073;28;20071;-67
2021/11/09 07:17:42;;;;;;;1.80;1.10;;;2.00;99.90;;;;;;4946570;28;20492;-66
2021/11/09 07:20:16;;;;;;;2.30;0.68;;;2.10;99.90;;;;;;4959072;28;20076;-64
2021/11/09 07:22:45;;;;;;;1.63;0.90;;;2.20;99.90;;;;;;4942763;28;20565;-64
2021/11/09 07:25:13;;;;;;;1.45;1.25;;;2.20;99.90;;;;;;4948338;28;20123;-68
2021/11/09 07:27:41;;;;;;;2.90;0.85;;;2.20;99.90;;;;;;4946403;28;20063;-71
2021/11/09 07:30:11;;;;;;;2.65;1.45;;;2.30;99.90;;;;;;4954394;28;20051;-64
2021/11/09 07:32:38;;;;;;;1.90;1.20;;;2.30;99.90;;;;;;4944824;28;20051;-65
2021/11/09 07:35:07;;;;;;;3.10;1.75;;;2.40;99.90;;;;;;4946276;28;20089;-71
2021/11/09 07:37:35;;;;;;;2.53;1.02;;;2.50;99.90;;;;;;4951457;28;20066;-63
2021/11/09 07:40:04;;;;;;;1.55;1.08;;;2.50;99.90;;;;;;4945938;28;20103;-67
2021/11/09 07:42:31;;;;;;;2.43;1.10;;;2.60;99.90;;;;;;4946150;28;20453;-64
2021/11/09 07:44:58;;;;;;;3.42;1.02;;;2.70;99.90;;;;;;4948220;28;20130;-64
2021/11/09 07:47:25;;;;;;;2.95;1.02;;;2.80;99.90;;;;;;4949166;28;20046;-67
2021/11/09 07:49:52;;;;;;;3.13;1.20;;;2.90;99.90;;;;;;4948974;28;20059;-64
2021/11/09 07:52:19;;;;;;;0.90;0.80;;;2.90;99.90;;;;;;4949278;28;20071;-66
2021/11/09 07:54:49;;;;;;;1.15;0.93;;;3.00;99.90;;;;;;4951646;28;20055;-65
2021/11/09 07:57:17;;;;;;;1.30;1.00;;;3.10;99.90;;;;;;4945257;28;20051;-67
2021/11/09 08:00:00;;;;;;;1.27;0.93;;;3.20;99.90;;;;;;4948578;28;20039;-64
2021/11/09 08:02:44;;;;;;;2.03;1.00;;;3.20;99.90;;;;;;4946598;28;20384;-66
2021/11/09 08:05:11;;;;;;;1.95;1.02;;;3.30;99.90;;;;;;4947531;28;20082;-64
2021/11/09 08:07:52;;;;;;;3.05;1.02;;;3.40;99.90;;;;;;4946912;28;20089;-65
2021/11/09 08:10:19;;;;;;;;;;;3.40;99.90;;;;;;4945201;28;20174;-68
2021/11/09 08:12:46;;;;;;;2.83;0.98;;;3.40;99.90;;;;;;4947288;28;19985;-65
2021/11/09 08:15:12;;;;;;;1.20;1.10;;;3.50;99.90;;;;;;4949461;28;20362;-71
2021/11/09 08:17:39;;;;;;;1.70;1.60;;;3.50;99.90;;;;;;4944301;28;20101;-67
2021/11/09 08:20:07;;;;;;;1.77;1.30;;;3.60;99.90;;;;;;4946112;28;21299;-64
2021/11/09 08:22:34;;;;;;;2.42;1.10;;;3.60;99.90;;;;;;4943172;28;20135;-64
2021/11/09 08:25:01;;;;;;;3.22;1.17;;;3.60;99.90;;;;;;4948260;28;20047;-69
2021/11/09 08:27:28;;;;;;;3.25;1.80;;;3.70;99.90;;;;;;4947044;28;20779;-67
2021/11/09 08:29:57;;;;;;;1.35;1.08;;;3.70;99.90;;;;;;4948149;28;20051;-66
2021/11/09 08:32:24;;;;;;;4.38;1.27;;;3.80;99.90;;;;;;4948363;28;20042;-65
2021/11/09 08:34:51;;;;;;;1.95;1.05;;;3.80;99.90;;;;;;4947875;28;20147;-65
2021/11/09 08:37:20;;;;;;;1.95;1.38;;;3.90;99.90;;;;;;4948721;28;20043;-64
2021/11/09 08:39:47;;;;;;;1.20;0.88;;;3.90;99.90;;;;;;4942586;28;20063;-71
2021/11/09 08:47:19;;;;;;;1.30;0.90;;;4.10;99.90;;;;;;4950406;28;20051;-64
2021/11/09 08:49:47;;;;;;;3.45;1.40;;;4.20;99.90;;;;;;4953009;28;20051;-70
2021/11/09 08:52:14;;;;;;;1.52;1.23;;;4.20;99.90;;;;;;4955194;28;20102;-64
2021/11/09 08:54:57;;;;;;;1.77;1.10;;;4.30;99.90;;;;;;4967752;28;20504;-69
2021/11/09 09:05:27;;;;;;;2.25;1.08;;;4.40;99.90;;;;;;4976498;28;20058;-65
2021/11/09 09:07:54;;;;;;;1.25;1.08;;;4.40;99.90;;;;;;4975729;28;20484;-64
2021/11/09 09:10:21;;;;;;;1.80;1.20;;;4.50;99.90;;;;;;4970963;28;20405;-64
2021/11/09 09:12:48;;;;;;;3.72;1.20;;;4.50;99.90;;;;;;4966688;28;20122;-64
2021/11/09 09:15:17;;;;;;;4.32;2.63;;;4.50;99.90;;;;;;4954438;28;20058;-66
2021/11/09 09:17:45;;;;;;;3.30;1.17;;;4.60;99.90;;;;;;4950741;28;20085;-66
2021/11/09 09:20:17;;;;;;;5.15;2.05;;;4.60;99.90;;;;;;4954478;28;20051;-70
2021/11/09 09:22:56;;;;;;;1.52;1.08;;;4.70;99.90;;;;;;4951278;28;20051;-64
2021/11/09 09:57:24;;;;;;;3.13;2.40;;;5.00;99.90;;;;;;4948607;28;20147;-64
2021/11/09 09:59:52;;;;;;;3.63;3.33;;;5.10;99.90;;;;;;4963338;28;20042;-63
2021/11/09 10:02:28;;;;;;;2.42;2.15;;;5.20;99.90;;;;;;4954501;28;20453;-65
2021/11/09 10:05:01;;;;;;;2.53;1.42;;;5.30;99.90;;;;;;4949461;28;20059;-68
2021/11/09 10:07:33;;;;;;;1.60;1.45;;;5.40;99.90;;;;;;4952076;28;20147;-64
2021/11/09 10:10:21;;;;;;;0.98;0.88;;;5.50;99.90;;;;;;4966508;28;20055;-64
2021/11/09 10:13:13;;;;;;;3.10;0.95;;;5.60;99.90;;;;;;4951710;28;20051;-66
2021/11/09 10:15:53;;;;;;;1.75;1.27;;;5.70;99.90;;;;;;4951293;28;20051;-64
2021/11/09 10:18:22;;;;;;;2.15;1.23;;;5.80;99.90;;;;;;4952626;28;20051;-64
2021/11/09 10:20:58;;;;;;;1.38;0.90;;;5.80;99.90;;;;;;4950581;28;20619;-64
2021/11/09 10:23:30;;;;;;;3.22;1.27;;;5.90;99.90;;;;;;4952752;28;20051;-66
2021/11/09 10:26:12;;;;;;;1.55;0.90;;;6.00;99.90;;;;;;4951866;28;20416;-69
2021/11/09 10:28:40;;;;;;;2.15;1.10;;;6.00;99.90;;;;;;4952276;28;20554;-67
2021/11/09 10:31:09;;;;;;;1.17;0.90;;;6.00;99.90;;;;;;4950939;28;20143;-66
2021/11/09 10:33:44;;;;;;;1.25;1.15;;;6.00;99.90;;;;;;4950709;28;20445;-63
2021/11/09 10:36:29;;;;;;;1.27;1.05;;;6.00;99.90;;;;;;4951303;28;20133;-63
2021/11/09 10:39:18;;;;;;;3.95;1.67;;;6.10;99.90;;;;;;4955656;28;20063;-64
2021/11/09 10:42:11;;;;;;;3.30;1.55;;;6.10;99.90;;;;;;4957545;28;20055;-64
2021/11/09 10:44:39;;;;;;;1.27;0.98;;;6.10;99.90;;;;;;4947290;28;20083;-64
2021/11/09 10:47:18;;;;;;;6.35;1.05;;;6.10;99.90;;;;;;4980303;28;20121;-64
2021/11/09 10:49:51;;;;;;;0.80;0.80;;;6.20;99.90;;;;;;4970838;28;20087;-65
2021/11/09 10:52:28;;;;;;;2.42;1.38;;;6.20;99.90;;;;;;4974165;28;20109;-64
2021/11/09 10:55:24;;;;;;;8.07;1.30;;;6.20;99.90;;;;;;4967532;28;20042;-64
2021/11/09 11:03:53;;;;;;;0.90;0.82;;;6.30;99.90;;;;;;4963067;28;20051;-66
2021/11/09 11:06:46;;;;;;;2.10;0.80;;;6.30;99.90;;;;;;4951072;28;20098;-64
2021/11/09 11:09:12;;;;;;;1.15;0.80;;;6.30;99.90;;;;;;4961004;28;20063;-63
2021/11/09 11:12:06;;;;;;;1.75;1.30;;;6.30;99.90;;;;;;4949255;28;20047;-64
2021/11/09 11:14:34;;;;;;;0.98;0.47;;;6.20;99.90;;;;;;4947288;28;20484;-66
2021/11/09 11:17:18;;;;;;;1.25;1.15;;;6.20;99.90;;;;;;4949482;28;20130;-63
2021/11/09 11:19:53;;;;;;;1.75;1.08;;;6.10;99.90;;;;;;4951255;28;20047;-63
2021/11/09 11:22:28;;;;;;;1.70;1.30;;;6.10;99.90;;;;;;4964026;28;20058;-67
2021/11/09 11:24:57;;;;;;;1.60;1.50;;;6.10;99.90;;;;;;4967746;28;20568;-64
2021/11/09 11:27:27;;;;;;;1.75;0.95;;;6.00;99.90;;;;;;4968268;28;20074;-68
2021/11/09 11:29:54;;;;;;;1.23;1.10;;;6.00;99.90;;;;;;4971095;28;20154;-64
2021/11/09 11:32:23;;;;;;;1.40;1.27;;;6.00;99.90;;;;;;4967748;28;20062;-67
2021/11/09 11:34:51;;;;;;;3.60;0.98;;;6.00;99.90;;;;;;4969628;28;20050;-64
2021/11/09 11:37:19;;;;;;;2.95;0.73;;;6.00;99.90;;;;;;4954329;28;20440;-67
2021/11/09 11:39:48;;;;;;;2.03;1.10;;;6.10;99.90;;;;;;4950125;28;20047;-64
2021/11/09 11:42:17;;;;;;;2.07;0.90;;;6.10;99.90;;;;;;4949708;28;20055;-67
2021/11/09 11:44:55;;;;;;;2.60;1.42;;;6.10;99.90;;;;;;4947397;28;20329;-67
2021/11/09 11:47:23;;;;;;;3.42;1.30;;;6.10;99.90;;;;;;4948794;28;20047;-64
2021/11/09 11:49:57;;;;;;;4.22;2.22;;;6.20;99.90;;;;;;4946353;28;20118;-63
2021/11/09 11:52:30;;;;;;;7.18;2.67;;;6.20;99.90;;;;;;4958994;28;20050;-63
2021/11/09 11:55:03;;;;;;;3.42;2.70;;;6.20;99.90;;;;;;4951230;28;20145;-64
2021/11/09 11:57:41;;;;;;;4.50;2.17;;;6.20;99.90;;;;;;4952807;28;20114;-68
2021/11/09 12:00:28;;;;;;;2.60;1.05;;;6.20;99.90;;;;;;4949850;28;20078;-64
2021/11/09 12:02:56;;;;;;;1.98;1.45;;;6.20;99.90;;;;;;4943352;28;20034;-64
2021/11/09 12:05:42;;;;;;;4.50;1.10;;;6.20;99.90;;;;;;4965063;28;20064;-65
2021/11/09 12:08:14;;;;;;;1.70;1.10;;;6.30;99.90;;;;;;4960988;28;20101;-69
2021/11/09 12:10:53;;;;;;;1.38;0.95;;;6.30;99.90;;;;;;4962279;28;20105;-64
2021/11/09 12:13:23;;;;;;;0.80;0.80;;;6.30;99.90;;;;;;4959780;28;20129;-65
2021/11/09 12:16:03;;;;;;;4.25;1.75;;;6.30;99.90;;;;;;4966797;28;20054;-65
2021/11/09 12:18:36;;;;;;;5.18;1.63;;;6.30;99.90;;;;;;4958647;28;20125;-71
2021/11/09 12:21:08;;;;;;;3.05;1.10;;;6.30;99.90;;;;;;4950830;28;20539;-65
2021/11/09 12:23:37;;;;;;;4.03;1.25;;;6.30;99.90;;;;;;4956668;28;20055;-67
2021/11/09 12:26:55;;;;;;;0.88;0.88;;;6.30;99.90;;;;;;4947677;28;20165;-65
2021/11/09 12:29:59;;;;;;;7.40;2.08;;;6.30;99.90;;;;;;4954201;28;20055;-64
2021/11/09 12:32:29;;;;;;;1.95;1.83;;;6.30;99.90;;;;;;4956511;28;20078;-65
2021/11/09 12:35:07;;;;;;;4.30;2.05;;;6.30;99.90;;;;;;4969212;28;20543;-66
2021/11/09 12:37:44;;;;;;;1.38;0.45;;;6.20;99.90;;;;;;4965269;28;20039;-64
2021/11/09 12:40:23;;;;;;;2.00;1.02;;;6.20;99.90;;;;;;4968291;28;20086;-67
2021/11/09 12:43:18;;;;;;;2.95;1.33;;;6.30;99.90;;;;;;4963242;28;20043;-72
2021/11/09 12:46:06;;;;;;;1.95;0.93;;;6.20;99.90;;;;;;4969557;28;20046;-67
2021/11/09 12:48:36;;;;;;;1.13;0.68;;;6.30;99.90;;;;;;4969197;28;20066;-64
2021/11/09 12:51:08;;;;;;;2.22;0.88;;;6.30;99.90;;;;;;4970543;28;20047;-66
2021/11/09 12:53:43;;;;;;;2.45;0.73;;;6.30;99.90;;;;;;4968219;28;20051;-64
2021/11/09 12:56:13;;;;;;;1.33;0.82;;;6.40;99.90;;;;;;4968615;28;20523;-63
2021/11/09 12:59:19;;;;;;;2.17;0.80;;;6.30;99.90;;;;;;4969821;28;20046;-66
2021/11/09 13:04:16;;;;;;;1.83;1.10;;;6.40;99.90;;;;;;4952848;28;20039;-65
2021/11/09 13:07:06;;;;;;;6.00;1.38;;;6.40;99.90;;;;;;4947769;28;20680;-75
2021/11/09 13:09:42;;;;;;;2.97;0.80;;;6.40;99.90;;;;;;4947386;28;20055;-65
2021/11/09 13:12:16;;;;;;;2.05;0.70;;;6.40;99.90;;;;;;4950217;28;20043;-65
2021/11/09 13:14:49;;;;;;;2.60;0.88;;;6.40;99.90;;;;;;4946144;28;20405;-63
2021/11/09 13:17:53;;;;;;;1.48;0.85;;;6.40;99.90;;;;;;4945839;28;20054;-65
2021/11/09 13:23:01;;;;;;;3.80;1.63;;;6.40;99.90;;;;;;4954021;28;20088;-63
2021/11/09 13:25:37;;;;;;;3.40;0.70;;;6.40;99.90;;;;;;4968103;28;20062;-67
2021/11/09 13:28:15;;;;;;;2.80;1.05;;;6.40;99.90;;;;;;4967220;28;20167;-63
2021/11/09 13:30:51;;;;;;;3.47;1.05;;;6.40;99.90;;;;;;4967068;28;20047;-65
2021/11/09 13:33:20;;;;;;;1.73;0.70;;;6.50;99.90;;;;;;4965527;28;20134;-64
2021/11/09 13:35:48;;;;;;;1.90;0.95;;;6.50;99.90;;;;;;4970228;28;20428;-65
2021/11/09 13:38:19;;;;;;;1.58;0.90;;;6.50;99.90;;;;;;4967075;28;20081;-65
2021/11/09 13:41:06;;;;;;;1.85;1.30;;;6.50;99.90;;;;;;4968684;28;20078;-68
2021/11/09 13:43:41;;;;;;;2.67;1.27;;;6.60;99.90;;;;;;4968816;28;20488;-73
2021/11/09 13:46:08;;;;;;;2.50;1.02;;;6.60;99.90;;;;;;4967289;28;20121;-64
2021/11/09 13:48:39;;;;;;;4.00;0.90;;;6.60;99.90;;;;;;4951348;28;20149;-63
2021/11/09 13:51:10;;;;;;;2.47;0.63;;;6.60;99.90;;;;;;4954324;28;20318;-63
2021/11/09 13:53:49;;;;;;;3.08;0.85;;;6.70;99.90;;;;;;4967631;28;20058;-64
2021/11/09 13:56:25;;;;;;;8.15;0.90;;;6.70;99.90;;;;;;4966811;28;20751;-65
2021/11/09 13:59:02;;;;;;;5.18;1.33;;;6.80;99.90;;;;;;4965404;28;20135;-65
2021/11/09 14:01:50;;;;;;;2.83;1.40;;;6.80;99.90;;;;;;4945313;28;20043;-70
2021/11/09 14:17:39;;;;;;;2.75;1.17;;;6.80;99.90;;;;;;4948457;28;20053;-63
2021/11/09 14:20:14;;;;;;;6.20;1.48;;;6.80;99.90;;;;;;4960948;28;20039;-65
2021/11/09 14:22:46;;;;;;;1.48;0.93;;;6.90;99.90;;;;;;4947984;28;20066;-64
2021/11/09 14:25:16;;;;;;;4.85;1.42;;;6.90;99.90;;;;;;4946760;28;20051;-67
2021/11/09 14:27:47;;;;;;;2.95;1.10;;;6.90;99.90;;;;;;4957119;28;20233;-64
2021/11/09 14:30:21;;;;;;;;;;;6.90;99.90;;;;;;4951468;28;20059;-64
2021/11/09 14:32:49;;;;;;;4.97;1.70;;;6.90;99.90;;;;;;4965065;28;20405;-66
2021/11/09 14:35:22;;;;;;;2.20;0.82;;;6.90;99.90;;;;;;4964676;28;20106;-67
2021/11/09 14:38:01;;;;;;;5.07;1.20;;;6.80;99.90;;;;;;4972646;28;20062;-65
2021/11/09 14:40:34;;;;;;;2.70;1.67;;;6.80;99.90;;;;;;4963632;28;20439;-65
2021/11/09 14:43:17;;;;;;;5.65;1.95;;;6.80;99.90;;;;;;4969500;28;20078;-67
2021/11/09 14:45:49;;;;;;;2.65;1.23;;;6.80;99.90;;;;;;4965949;28;20074;-63
2021/11/09 14:48:35;;;;;;;1.48;1.20;;;6.80;99.90;;;;;;4967743;28;20042;-64
2021/11/09 14:51:12;;;;;;;3.80;1.70;;;6.80;99.90;;;;;;4964725;28;20094;-63
2021/11/09 14:56:36;;;;;;;4.35;1.13;;;6.80;99.90;;;;;;4961564;28;20169;-63
2021/11/09 14:59:07;;;;;;;2.97;1.20;;;6.80;99.90;;;;;;4964837;28;20053;-70
2021/11/09 15:01:40;;;;;;;5.97;1.88;;;6.80;99.90;;;;;;4966361;28;20047;-63
2021/11/09 15:04:11;;;;;;;2.35;1.30;;;6.80;99.90;;;;;;4964217;28;20073;-67
2021/11/09 15:28:13;;;;;;;7.53;3.15;;;7.00;99.90;;;;;;4975240;28;20038;-64
2021/11/09 15:38:23;;;;;;;6.97;2.40;;;7.10;99.90;;;;;;4951950;28;20062;-63
2021/11/09 15:40:52;;;;;;;6.13;2.05;;;7.10;99.90;;;;;;4945611;28;20059;-64
2021/11/09 15:43:19;;;;;;;3.88;2.50;;;7.10;99.90;;;;;;4947554;28;20071;-64
2021/11/09 15:45:48;;;;;;;5.55;2.40;;;7.10;99.90;;;;;;4947124;28;20050;-65
2021/11/09 15:48:15;;;;;;;4.47;2.60;;;7.20;99.90;;;;;;4945688;28;20039;-64
2021/11/09 15:50:42;;;;;;;5.60;2.90;;;7.20;99.90;;;;;;4946598;28;20051;-65
2021/11/09 15:53:09;;;;;;;10.07;3.53;;;7.20;99.90;;;;;;4946566;28;20043;-64
2021/11/09 15:55:36;;;;;;;7.28;3.50;;;7.30;99.90;;;;;;4945632;28;20127;-66
2021/11/09 15:58:02;;;;;;;5.53;3.03;;;7.30;99.90;;;;;;4945639;28;20071;-67
2021/11/09 16:00:29;;;;;;;4.57;2.90;;;7.30;99.90;;;;;;4942090;28;20070;-66
2021/11/09 16:02:56;;;;;;;7.65;3.35;;;7.40;99.90;;;;;;4945057;28;20657;-67
2021/11/09 16:05:25;;;;;;;5.78;3.10;;;7.40;99.90;;;;;;4942349;28;20549;-71
2021/11/09 16:07:54;;;;;;;6.25;4.00;;;7.40;99.90;;;;;;4944979;28;20109;-66
2021/11/09 16:10:22;;;;;;;6.50;3.75;;;7.40;99.90;;;;;;4943910;28;20399;-66
2021/11/09 16:12:49;;;;;;;6.47;4.03;;;7.40;99.90;;;;;;4942801;28;21668;-67
2021/11/09 16:15:16;;;;;;;7.95;4.22;;;7.50;99.90;;;;;;4943980;28;20122;-68
2021/11/09 16:17:43;;;;;;;9.25;4.32;;;7.50;99.90;;;;;;4944108;28;20106;-66
2021/11/09 16:20:15;;;;;;;6.60;3.88;;;7.50;99.90;;;;;;4943439;28;20054;-66
2021/11/09 16:22:42;;;;;;;9.55;4.35;;;7.50;99.90;;;;;;4942238;28;20066;-67
2021/11/09 16:25:12;;;;;;;7.70;3.88;;;7.50;99.90;;;;;;4945016;28;20552;-63
2021/11/09 16:27:39;;;;;;;13.00;8.30;;;7.60;99.90;;;;;;4942348;28;20517;-66